Time;durP1;ratioP1;P1;durP2;ratioP2;P2;SDS_P1;SDS_P2;PMS_P1;PMS_P2;Temp;Humidity;BMP_temperature;BMP_pressure;BME280_temperature;BME280_humidity;BME280_pressure;Samples;Min_cycle;Max_cycle;Signal;HPM_P1;HPM_P2
2023/10/30 00:01:28;;;;;;;10.43;5.57;;;;;;;;;;5093551;28;20448;-72
2023/10/30 00:04:14;;;;;;;11.00;5.22;;;;;;;;;;5079044;28;20036;-72
2023/10/30 00:06:59;;;;;;;11.63;5.53;;;;;;;;;;5094178;28;20040;-71
2023/10/30 00:09:45;;;;;;;9.30;4.18;;;;;;;;;;5093485;28;20020;-71
2023/10/30 00:12:31;;;;;;;8.27;3.63;;;;;;;;;;5094523;28;20016;-72
2023/10/30 00:15:17;;;;;;;6.00;2.78;;;;;;;;;;5094006;28;20078;-71
2023/10/30 00:18:03;;;;;;;6.22;2.90;;;;;;;;;;5094237;28;20103;-71
2023/10/30 00:20:48;;;;;;;6.78;3.05;;;;;;;;;;5095048;28;20024;-71
2023/10/30 00:23:34;;;;;;;5.97;3.00;;;;;;;;;;5093419;28;20523;-71
2023/10/30 00:26:19;;;;;;;6.97;2.70;;;;;;;;;;5080234;28;20020;-71
2023/10/30 00:29:05;;;;;;;6.72;2.30;;;;;;;;;;5088423;28;20099;-72
2023/10/30 00:31:51;;;;;;;7.00;2.38;;;;;;;;;;5083137;28;20020;-71
2023/10/30 00:34:36;;;;;;;4.97;2.60;;;;;;;;;;5084912;28;20066;-72
2023/10/30 00:37:23;;;;;;;4.78;1.95;;;;;;;;;;5098247;28;20024;-71
2023/10/30 00:40:08;;;;;;;4.38;2.38;;;;;;;;;;5097732;28;20111;-72
2023/10/30 00:42:54;;;;;;;7.32;2.53;;;;;;;;;;5098159;28;20049;-70
2023/10/30 00:45:40;;;;;;;8.70;2.80;;;;;;;;;;5097251;28;20024;-71
2023/10/30 00:48:25;;;;;;;4.63;2.30;;;;;;;;;;5097321;28;20085;-71
2023/10/30 00:51:11;;;;;;;4.28;2.50;;;;;;;;;;5096888;28;20019;-71
2023/10/30 00:53:57;;;;;;;4.28;2.40;;;;;;;;;;5101280;28;20063;-70
2023/10/30 00:56:43;;;;;;;6.75;2.45;;;;;;;;;;5118314;28;20534;-71
2023/10/30 00:59:29;;;;;;;5.10;2.38;;;;;;;;;;5117786;28;20027;-71
2023/10/30 01:02:14;;;;;;;7.75;2.25;;;;;;;;;;5117640;28;20449;-72
2023/10/30 01:05:00;;;;;;;3.30;1.70;;;;;;;;;;5117672;28;20038;-71
2023/10/30 01:07:46;;;;;;;5.22;2.45;;;;;;;;;;5102832;28;20102;-71
2023/10/30 01:10:31;;;;;;;4.65;1.90;;;;;;;;;;5117611;28;20026;-71
2023/10/30 01:13:17;;;;;;;3.90;2.25;;;;;;;;;;5102304;28;20027;-72
2023/10/30 01:16:05;;;;;;;3.08;1.83;;;;;;;;;;5102717;28;20020;-71
2023/10/30 01:18:50;;;;;;;5.03;2.13;;;;;;;;;;5116903;28;20024;-71
2023/10/30 01:21:37;;;;;;;4.22;1.90;;;;;;;;;;5102666;28;20367;-70
2023/10/30 01:24:22;;;;;;;5.55;2.33;;;;;;;;;;5117213;28;20016;-71
2023/10/30 01:27:08;;;;;;;5.90;2.13;;;;;;;;;;5102329;28;20360;-71
2023/10/30 01:29:53;;;;;;;6.05;2.30;;;;;;;;;;5101849;28;20020;-71
2023/10/30 01:32:39;;;;;;;6.40;2.80;;;;;;;;;;5117902;28;20076;-71
2023/10/30 01:35:25;;;;;;;9.48;3.97;;;;;;;;;;5116796;28;20027;-71
2023/10/30 01:38:10;;;;;;;11.30;3.40;;;;;;;;;;5117179;28;20111;-71
2023/10/30 01:40:56;;;;;;;13.57;3.60;;;;;;;;;;5116302;28;20024;-71
2023/10/30 01:43:42;;;;;;;18.02;3.22;;;;;;;;;;5116723;28;20019;-72
2023/10/30 01:46:27;;;;;;;11.60;3.65;;;;;;;;;;5116614;28;20090;-71
2023/10/30 01:49:13;;;;;;;10.00;3.45;;;;;;;;;;5117672;28;20110;-71
2023/10/30 01:51:58;;;;;;;11.23;3.47;;;;;;;;;;5107492;28;20016;-70
2023/10/30 01:54:46;;;;;;;9.25;3.70;;;;;;;;;;5104944;28;20126;-70
2023/10/30 01:57:32;;;;;;;8.32;3.88;;;;;;;;;;5102826;28;20084;-71
2023/10/30 02:00:18;;;;;;;8.48;3.88;;;;;;;;;;5103760;28;20084;-71
2023/10/30 02:03:04;;;;;;;15.43;7.70;;;;;;;;;;5116911;28;20055;-71
2023/10/30 02:05:53;;;;;;;14.50;7.60;;;;;;;;;;5116072;28;20018;-71
2023/10/30 02:08:38;;;;;;;11.63;7.53;;;;;;;;;;5117187;28;20102;-71
2023/10/30 02:11:24;;;;;;;11.25;7.18;;;;;;;;;;5116443;28;20084;-70
2023/10/30 02:14:10;;;;;;;13.82;7.60;;;;;;;;;;5116482;28;20019;-70
2023/10/30 02:16:55;;;;;;;17.20;7.07;;;;;;;;;;5116328;28;20035;-71
2023/10/30 02:19:41;;;;;;;11.63;6.68;;;;;;;;;;5119350;28;20028;-71
2023/10/30 02:22:26;;;;;;;12.82;6.95;;;;;;;;;;5120169;28;20077;-70
2023/10/30 02:25:12;;;;;;;15.07;8.07;;;;;;;;;;5101363;28;20016;-71
2023/10/30 02:27:58;;;;;;;14.82;7.68;;;;;;;;;;5116263;28;20410;-72
2023/10/30 02:30:43;;;;;;;13.20;7.38;;;;;;;;;;5117109;28;20016;-72
2023/10/30 02:33:29;;;;;;;15.77;8.23;;;;;;;;;;5117378;28;20027;-70
2023/10/30 02:36:15;;;;;;;15.43;8.30;;;;;;;;;;5117316;28;20034;-70
2023/10/30 02:39:04;;;;;;;15.63;8.35;;;;;;;;;;5116299;28;20069;-70
2023/10/30 02:41:50;;;;;;;15.10;9.30;;;;;;;;;;5115383;28;20444;-70
2023/10/30 02:44:35;;;;;;;17.48;9.18;;;;;;;;;;5116003;28;20096;-71
2023/10/30 02:47:23;;;;;;;17.35;8.68;;;;;;;;;;5115070;28;20031;-71
2023/10/30 02:50:10;;;;;;;18.45;8.35;;;;;;;;;;5115612;28;20020;-70
2023/10/30 02:52:56;;;;;;;13.05;8.07;;;;;;;;;;5116248;28;20034;-71
2023/10/30 02:55:41;;;;;;;19.60;9.50;;;;;;;;;;5115106;28;20113;-72
2023/10/30 02:58:27;;;;;;;18.52;9.35;;;;;;;;;;5115323;28;20023;-70
2023/10/30 03:01:12;;;;;;;16.40;9.07;;;;;;;;;;5115134;28;20141;-71
2023/10/30 03:03:58;;;;;;;16.90;9.35;;;;;;;;;;5115312;28;20073;-71
2023/10/30 03:06:43;;;;;;;18.35;9.90;;;;;;;;;;5100511;28;20042;-71
2023/10/30 03:09:30;;;;;;;18.10;10.13;;;;;;;;;;5115119;28;20106;-71
2023/10/30 03:12:15;;;;;;;18.45;10.85;;;;;;;;;;5116097;28;20035;-71
2023/10/30 03:15:01;;;;;;;16.30;10.07;;;;;;;;;;5114848;28;20020;-71
2023/10/30 03:17:47;;;;;;;15.23;9.10;;;;;;;;;;5115805;28;20020;-71
2023/10/30 03:20:32;;;;;;;16.60;8.88;;;;;;;;;;5115287;28;20081;-71
2023/10/30 03:23:20;;;;;;;18.33;8.57;;;;;;;;;;5114885;28;20034;-71
2023/10/30 03:26:05;;;;;;;15.82;8.82;;;;;;;;;;5099863;28;20321;-70
2023/10/30 03:28:51;;;;;;;15.55;8.65;;;;;;;;;;5101125;28;20026;-71
2023/10/30 03:31:37;;;;;;;17.52;8.82;;;;;;;;;;5099291;28;20292;-72
2023/10/30 03:34:22;;;;;;;16.73;8.50;;;;;;;;;;5115100;28;20034;-72
2023/10/30 03:37:08;;;;;;;17.35;8.77;;;;;;;;;;5098987;28;20439;-71
2023/10/30 03:39:54;;;;;;;14.73;8.90;;;;;;;;;;5114764;28;20042;-72
2023/10/30 03:42:40;;;;;;;17.63;8.70;;;;;;;;;;5115160;28;20026;-75
2023/10/30 03:45:25;;;;;;;17.63;10.73;;;;;;;;;;5114662;28;20085;-75
2023/10/30 03:48:11;;;;;;;19.52;10.30;;;;;;;;;;5115223;28;20099;-73
2023/10/30 03:50:57;;;;;;;16.23;9.30;;;;;;;;;;5115993;28;20376;-72
2023/10/30 03:53:42;;;;;;;14.80;8.93;;;;;;;;;;5114563;28;20154;-73
2023/10/30 03:56:28;;;;;;;16.15;8.57;;;;;;;;;;5114460;28;20023;-70
2023/10/30 03:59:16;;;;;;;16.65;9.40;;;;;;;;;;5114201;28;20019;-71
2023/10/30 04:02:01;;;;;;;17.77;8.90;;;;;;;;;;5114286;28;20027;-71
2023/10/30 04:04:47;;;;;;;15.40;8.68;;;;;;;;;;5114516;28;20046;-72
2023/10/30 04:07:33;;;;;;;16.52;8.60;;;;;;;;;;5114929;28;20015;-72
2023/10/30 04:10:18;;;;;;;16.27;8.80;;;;;;;;;;5099568;28;20024;-72
2023/10/30 04:13:04;;;;;;;16.30;8.90;;;;;;;;;;5114095;28;20047;-71
2023/10/30 04:15:49;;;;;;;15.52;9.18;;;;;;;;;;5114276;28;20028;-73
2023/10/30 04:18:35;;;;;;;14.85;8.70;;;;;;;;;;5099359;28;20032;-72
2023/10/30 04:21:21;;;;;;;17.98;9.98;;;;;;;;;;5099506;28;20023;-72
2023/10/30 04:24:07;;;;;;;19.10;10.05;;;;;;;;;;5114363;28;20325;-72
2023/10/30 04:26:52;;;;;;;16.13;9.63;;;;;;;;;;5114138;28;20024;-70
2023/10/30 04:29:38;;;;;;;18.13;8.88;;;;;;;;;;5113801;28;20336;-71
2023/10/30 04:32:23;;;;;;;19.92;9.75;;;;;;;;;;5113995;28;20023;-72
2023/10/30 04:35:09;;;;;;;15.95;8.80;;;;;;;;;;5113934;28;20028;-73
2023/10/30 04:37:55;;;;;;;19.13;9.43;;;;;;;;;;5099234;28;20024;-72
2023/10/30 04:40:40;;;;;;;20.50;9.57;;;;;;;;;;5113897;28;20099;-72
2023/10/30 04:43:26;;;;;;;20.88;8.82;;;;;;;;;;5099572;28;20102;-71
2023/10/30 04:46:11;;;;;;;18.88;10.55;;;;;;;;;;5113936;28;20023;-72
2023/10/30 04:48:57;;;;;;;18.50;9.75;;;;;;;;;;5115787;28;20464;-71
2023/10/30 04:51:43;;;;;;;19.00;9.48;;;;;;;;;;5115160;28;20455;-72
2023/10/30 04:54:29;;;;;;;15.80;9.25;;;;;;;;;;5113318;28;20058;-72
2023/10/30 04:57:14;;;;;;;17.80;9.48;;;;;;;;;;5114100;28;20020;-71
2023/10/30 05:00:00;;;;;;;23.88;10.55;;;;;;;;;;5113876;28;20111;-71
2023/10/30 05:02:48;;;;;;;23.48;10.55;;;;;;;;;;5113367;28;20020;-72
2023/10/30 05:05:35;;;;;;;25.25;9.45;;;;;;;;;;5114750;28;20479;-72
2023/10/30 05:08:21;;;;;;;17.42;8.85;;;;;;;;;;5113970;28;20099;-75
2023/10/30 05:11:06;;;;;;;14.60;8.18;;;;;;;;;;5098520;28;20566;-72
2023/10/30 05:13:52;;;;;;;20.38;8.85;;;;;;;;;;5114846;28;20102;-71
2023/10/30 05:16:38;;;;;;;27.25;11.05;;;;;;;;;;5118541;28;20023;-74
2023/10/30 05:19:23;;;;;;;26.63;12.00;;;;;;;;;;5117008;28;20059;-72
2023/10/30 05:22:09;;;;;;;18.73;11.30;;;;;;;;;;5118044;28;20027;-71
2023/10/30 05:24:55;;;;;;;17.77;10.98;;;;;;;;;;5117847;28;20487;-72
2023/10/30 05:27:41;;;;;;;28.23;12.40;;;;;;;;;;5119069;27;20058;-73
2023/10/30 05:30:26;;;;;;;22.92;13.20;;;;;;;;;;5117836;28;20020;-72
2023/10/30 05:33:12;;;;;;;24.42;12.27;;;;;;;;;;5117336;28;20058;-70
2023/10/30 05:35:57;;;;;;;22.20;12.25;;;;;;;;;;5117389;28;20035;-70
2023/10/30 05:38:43;;;;;;;22.98;12.43;;;;;;;;;;5116250;28;20089;-72
2023/10/30 05:41:29;;;;;;;22.52;12.88;;;;;;;;;;5116355;28;20082;-72
2023/10/30 05:44:15;;;;;;;24.52;13.25;;;;;;;;;;5117514;28;20031;-71
2023/10/30 05:47:01;;;;;;;27.75;13.27;;;;;;;;;;5118031;28;20026;-72
2023/10/30 05:49:46;;;;;;;27.80;12.98;;;;;;;;;;5117581;28;20522;-70
2023/10/30 05:52:32;;;;;;;27.30;13.18;;;;;;;;;;5117899;28;20035;-72
2023/10/30 05:55:18;;;;;;;27.48;13.27;;;;;;;;;;5117303;28;20380;-71
2023/10/30 05:58:03;;;;;;;27.25;13.18;;;;;;;;;;5117684;28;20036;-72
2023/10/30 06:00:50;;;;;;;21.83;12.52;;;;;;;;;;5117278;28;20019;-71
2023/10/30 06:03:36;;;;;;;27.42;12.75;;;;;;;;;;5117478;28;20347;-70
2023/10/30 06:06:22;;;;;;;21.40;11.40;;;;;;;;;;5115936;28;20023;-72
2023/10/30 06:09:08;;;;;;;27.35;12.13;;;;;;;;;;5117439;28;20340;-72
2023/10/30 06:11:53;;;;;;;29.52;12.27;;;;;;;;;;5117102;28;20420;-72
2023/10/30 06:14:39;;;;;;;23.13;11.25;;;;;;;;;;5116133;28;20102;-70
2023/10/30 06:17:25;;;;;;;33.17;13.25;;;;;;;;;;5102609;28;20012;-72
2023/10/30 06:20:11;;;;;;;27.42;11.30;;;;;;;;;;5116433;28;20031;-72
2023/10/30 06:22:59;;;;;;;32.15;11.38;;;;;;;;;;5116874;28;20024;-71
2023/10/30 06:25:45;;;;;;;19.52;10.82;;;;;;;;;;5117481;28;20023;-72
2023/10/30 06:28:31;;;;;;;19.45;9.43;;;;;;;;;;5102792;28;20457;-71
2023/10/30 06:31:17;;;;;;;16.58;7.43;;;;;;;;;;5116707;28;20471;-71
2023/10/30 06:34:03;;;;;;;17.58;8.20;;;;;;;;;;5116009;28;20356;-71
2023/10/30 06:36:48;;;;;;;17.33;7.18;;;;;;;;;;5115770;28;20106;-71
2023/10/30 06:39:34;;;;;;;14.38;6.55;;;;;;;;;;5116128;28;20035;-71
2023/10/30 06:42:19;;;;;;;16.27;5.82;;;;;;;;;;5115225;28;20019;-71
2023/10/30 06:45:05;;;;;;;24.02;10.57;;;;;;;;;;5116133;28;20024;-72
2023/10/30 06:47:51;;;;;;;24.27;10.07;;;;;;;;;;5117291;27;20038;-72
2023/10/30 06:50:37;;;;;;;21.20;11.30;;;;;;;;;;5116945;28;20024;-72
2023/10/30 06:53:23;;;;;;;20.63;11.60;;;;;;;;;;5115469;28;20442;-69
2023/10/30 06:56:08;;;;;;;26.58;10.80;;;;;;;;;;5086522;28;20054;-69
2023/10/30 06:58:54;;;;;;;27.30;11.18;;;;;;;;;;5088109;28;20465;-73
2023/10/30 07:01:43;;;;;;;23.58;9.68;;;;;;;;;;5078926;28;20123;-77
2023/10/30 07:04:30;;;;;;;13.90;5.30;;;;;;;;;;5094312;28;20416;-77
2023/10/30 07:07:15;;;;;;;13.60;5.47;;;;;;;;;;5078774;28;20028;-74
2023/10/30 07:10:02;;;;;;;9.32;4.85;;;;;;;;;;5079007;28;20024;-73
2023/10/30 07:12:48;;;;;;;11.43;4.90;;;;;;;;;;5078100;28;20106;-74
2023/10/30 07:15:33;;;;;;;14.82;4.72;;;;;;;;;;5090294;28;20045;-74
2023/10/30 07:18:19;;;;;;;10.07;5.20;;;;;;;;;;5077838;28;20501;-74
2023/10/30 07:21:05;;;;;;;13.65;5.13;;;;;;;;;;5092056;28;20441;-75
2023/10/30 07:23:50;;;;;;;23.08;5.13;;;;;;;;;;5076977;28;20059;-75
2023/10/30 07:26:36;;;;;;;11.93;4.60;;;;;;;;;;5092630;28;20039;-71
2023/10/30 07:29:21;;;;;;;12.65;5.22;;;;;;;;;;5077486;28;20459;-75
2023/10/30 07:32:07;;;;;;;11.43;4.93;;;;;;;;;;5092475;28;20062;-74
2023/10/30 07:34:53;;;;;;;10.40;5.03;;;;;;;;;;5092546;28;20081;-74
2023/10/30 07:37:38;;;;;;;10.02;4.10;;;;;;;;;;5084229;28;20038;-73
2023/10/30 07:40:26;;;;;;;8.27;4.05;;;;;;;;;;5074951;28;20364;-73
2023/10/30 07:43:11;;;;;;;8.55;3.63;;;;;;;;;;5114641;28;20015;-75
2023/10/30 07:45:57;;;;;;;14.18;3.80;;;;;;;;;;5115249;28;20023;-76
2023/10/30 07:48:43;;;;;;;9.88;4.35;;;;;;;;;;5100308;28;20019;-74
2023/10/30 07:51:28;;;;;;;8.15;3.80;;;;;;;;;;5115049;28;20146;-75
2023/10/30 07:54:14;;;;;;;10.88;3.90;;;;;;;;;;5121528;27;20066;-74
2023/10/30 07:57:00;;;;;;;11.82;4.10;;;;;;;;;;5136137;27;20039;-73
2023/10/30 07:59:47;;;;;;;7.72;3.42;;;;;;;;;;5135366;27;20026;-73
2023/10/30 08:02:32;;;;;;;7.10;3.70;;;;;;;;;;5134855;27;20023;-75
2023/10/30 08:05:18;;;;;;;7.43;3.10;;;;;;;;;;5128758;27;20058;-73
2023/10/30 08:08:04;;;;;;;11.70;4.10;;;;;;;;;;5126839;27;20459;-76
2023/10/30 08:10:49;;;;;;;5.65;3.80;;;;;;;;;;5134635;28;20358;-77
2023/10/30 08:13:35;;;;;;;10.95;3.78;;;;;;;;;;5134708;28;20359;-76
2023/10/30 08:16:21;;;;;;;8.30;3.95;;;;;;;;;;5134590;28;20031;-77
2023/10/30 08:19:06;;;;;;;11.55;4.28;;;;;;;;;;5135925;28;20030;-75
2023/10/30 08:21:52;;;;;;;8.65;3.75;;;;;;;;;;5135504;28;20474;-77
2023/10/30 08:24:38;;;;;;;8.43;3.78;;;;;;;;;;5121587;28;20015;-78
2023/10/30 08:27:23;;;;;;;9.00;3.30;;;;;;;;;;5135986;28;20102;-77
2023/10/30 08:30:12;;;;;;;8.70;3.50;;;;;;;;;;5121298;28;20031;-77
2023/10/30 08:32:57;;;;;;;9.93;3.85;;;;;;;;;;5135286;28;20030;-78
2023/10/30 08:35:46;;;;;;;7.47;3.30;;;;;;;;;;5135798;28;20023;-78
2023/10/30 08:38:32;;;;;;;9.30;4.13;;;;;;;;;;5136677;28;20019;-77
2023/10/30 08:41:19;;;;;;;8.73;3.72;;;;;;;;;;5136351;28;20439;-77
2023/10/30 08:44:05;;;;;;;12.75;4.25;;;;;;;;;;5134844;28;20034;-77
2023/10/30 08:46:50;;;;;;;7.80;4.32;;;;;;;;;;5134109;28;20071;-76
2023/10/30 08:49:36;;;;;;;12.80;3.90;;;;;;;;;;5125254;27;20034;-77
2023/10/30 08:52:22;;;;;;;10.30;4.22;;;;;;;;;;5138996;27;20011;-78
2023/10/30 08:55:07;;;;;;;6.72;3.08;;;;;;;;;;5138609;27;20047;-80
2023/10/30 08:57:53;;;;;;;9.27;3.70;;;;;;;;;;5140928;27;20386;-79
2023/10/30 09:00:39;;;;;;;9.95;3.35;;;;;;;;;;5123635;27;20019;-79
2023/10/30 09:03:24;;;;;;;8.38;3.95;;;;;;;;;;5138919;27;20019;-79
2023/10/30 09:06:10;;;;;;;8.77;3.28;;;;;;;;;;5124484;27;20384;-77
2023/10/30 09:08:56;;;;;;;8.23;4.00;;;;;;;;;;5139876;27;20030;-78
2023/10/30 09:11:41;;;;;;;10.52;3.47;;;;;;;;;;5140921;27;20408;-79
2023/10/30 09:14:27;;;;;;;9.80;3.35;;;;;;;;;;5123893;27;20102;-76
2023/10/30 09:17:13;;;;;;;7.20;3.03;;;;;;;;;;5123056;27;20450;-79
2023/10/30 09:19:58;;;;;;;6.78;3.08;;;;;;;;;;5137959;27;20054;-77
2023/10/30 09:22:44;;;;;;;11.00;4.68;;;;;;;;;;5123396;27;20520;-80
2023/10/30 09:25:30;;;;;;;6.38;3.03;;;;;;;;;;5138235;27;20118;-80
2023/10/30 09:28:16;;;;;;;6.68;3.25;;;;;;;;;;5121865;27;20056;-79
2023/10/30 09:31:02;;;;;;;4.97;2.63;;;;;;;;;;5123502;27;20058;-78
2023/10/30 09:33:48;;;;;;;3.60;2.60;;;;;;;;;;5137404;27;20015;-77
2023/10/30 09:36:34;;;;;;;6.25;2.67;;;;;;;;;;5136750;27;20059;-78
2023/10/30 09:39:20;;;;;;;4.18;2.45;;;;;;;;;;5121917;27;20023;-79
2023/10/30 09:42:07;;;;;;;5.45;2.55;;;;;;;;;;5123896;27;20019;-78
2023/10/30 09:44:52;;;;;;;6.32;3.03;;;;;;;;;;5136957;27;20027;-78
2023/10/30 09:47:38;;;;;;;7.32;3.65;;;;;;;;;;5136806;27;20067;-79
2023/10/30 09:50:24;;;;;;;6.10;2.72;;;;;;;;;;5123467;27;20041;-79
2023/10/30 09:53:11;;;;;;;5.07;2.80;;;;;;;;;;5122848;27;20091;-78
2023/10/30 09:55:59;;;;;;;7.40;3.30;;;;;;;;;;5137447;27;20119;-78
2023/10/30 09:58:46;;;;;;;5.45;2.90;;;;;;;;;;5122878;27;20027;-78
2023/10/30 10:01:31;;;;;;;9.75;3.30;;;;;;;;;;5121177;27;20060;-77
2023/10/30 10:04:17;;;;;;;4.95;3.33;;;;;;;;;;5138648;27;20023;-78
2023/10/30 10:07:03;;;;;;;6.68;3.40;;;;;;;;;;5138061;27;20336;-78
2023/10/30 10:09:58;;;;;;;10.65;3.67;;;;;;;;;;5138571;27;20011;-79
2023/10/30 10:12:48;;;;;;;8.15;3.35;;;;;;;;;;5124237;27;20037;-78
2023/10/30 10:15:33;;;;;;;8.75;3.50;;;;;;;;;;5137398;27;20354;-78
2023/10/30 10:18:25;;;;;;;5.63;3.47;;;;;;;;;;5136990;27;20049;-78
2023/10/30 10:21:14;;;;;;;10.43;3.60;;;;;;;;;;5137803;27;20054;-79
2023/10/30 10:23:59;;;;;;;11.32;4.30;;;;;;;;;;5124338;27;20026;-78
2023/10/30 10:26:47;;;;;;;19.80;5.28;;;;;;;;;;5125657;27;20359;-79
2023/10/30 10:29:33;;;;;;;35.22;5.95;;;;;;;;;;5137125;27;20011;-79
2023/10/30 10:32:19;;;;;;;27.58;5.18;;;;;;;;;;5139541;27;20507;-79
2023/10/30 10:35:05;;;;;;;8.02;4.03;;;;;;;;;;5123056;27;20499;-77
2023/10/30 10:38:06;;;;;;;8.10;3.90;;;;;;;;;;5137569;27;20042;-78
2023/10/30 10:40:52;;;;;;;7.60;3.40;;;;;;;;;;5121973;27;20454;-78
2023/10/30 10:43:38;;;;;;;75.90;10.52;;;;;;;;;;5143198;27;20042;-79
2023/10/30 10:46:24;;;;;;;21.27;4.30;;;;;;;;;;5140003;27;20046;-77
2023/10/30 10:49:09;;;;;;;13.90;4.18;;;;;;;;;;5137139;27;20011;-78
2023/10/30 10:51:56;;;;;;;7.22;4.25;;;;;;;;;;5138068;27;20019;-78
2023/10/30 10:54:44;;;;;;;6.97;4.25;;;;;;;;;;5122705;27;20050;-73
2023/10/30 10:57:50;;;;;;;8.80;4.05;;;;;;;;;;5135214;27;20038;-73
2023/10/30 11:00:47;;;;;;;8.05;4.45;;;;;;;;;;5137533;27;20122;-73
2023/10/30 11:03:32;;;;;;;20.40;4.82;;;;;;;;;;5135571;27;20456;-76
2023/10/30 11:06:21;;;;;;;11.85;5.15;;;;;;;;;;5136711;27;20088;-74
2023/10/30 11:09:15;;;;;;;10.07;5.18;;;;;;;;;;5137157;27;20072;-75
2023/10/30 11:12:21;;;;;;;11.10;5.55;;;;;;;;;;5136696;27;20105;-75
2023/10/30 11:15:30;;;;;;;11.52;5.38;;;;;;;;;;5105042;27;20110;-77
2023/10/30 11:18:24;;;;;;;15.40;5.80;;;;;;;;;;5120641;27;20053;-75
2023/10/30 11:21:12;;;;;;;14.57;6.25;;;;;;;;;;5134779;27;20019;-77
2023/10/30 11:23:59;;;;;;;10.38;5.13;;;;;;;;;;5135057;27;20038;-76
2023/10/30 11:26:45;;;;;;;37.85;7.55;;;;;;;;;;5134713;27;20033;-75
2023/10/30 11:29:54;;;;;;;14.20;6.05;;;;;;;;;;5135413;27;20160;-76
2023/10/30 11:32:46;;;;;;;20.35;6.20;;;;;;;;;;5135420;27;20072;-78
2023/10/30 11:35:33;;;;;;;17.05;4.95;;;;;;;;;;5135026;27;20026;-76
2023/10/30 11:38:20;;;;;;;10.23;4.80;;;;;;;;;;5134397;27;20023;-75
2023/10/30 11:41:06;;;;;;;16.10;5.75;;;;;;;;;;5134405;27;20106;-75
2023/10/30 11:44:06;;;;;;;24.83;7.22;;;;;;;;;;5134405;27;20026;-75
2023/10/30 11:46:52;;;;;;;13.60;5.20;;;;;;;;;;5128004;27;20012;-75
2023/10/30 11:49:40;;;;;;;9.60;4.85;;;;;;;;;;5114654;28;20019;-76
2023/10/30 11:52:25;;;;;;;10.65;4.50;;;;;;;;;;5114439;28;20412;-76
2023/10/30 11:55:11;;;;;;;8.95;4.20;;;;;;;;;;5114359;28;20088;-77
2023/10/30 11:57:58;;;;;;;10.02;4.03;;;;;;;;;;5098643;28;20027;-76
2023/10/30 12:00:47;;;;;;;29.45;5.60;;;;;;;;;;5097541;28;20031;-75
2023/10/30 12:03:33;;;;;;;9.50;4.32;;;;;;;;;;5113518;28;20028;-76
2023/10/30 12:06:18;;;;;;;9.68;3.90;;;;;;;;;;5114278;28;20016;-76
2023/10/30 12:09:04;;;;;;;5.43;3.50;;;;;;;;;;5113969;28;20035;-76
2023/10/30 12:11:50;;;;;;;8.38;5.45;;;;;;;;;;5112769;28;20047;-76
2023/10/30 12:14:35;;;;;;;8.15;4.10;;;;;;;;;;5099004;28;20466;-76
2023/10/30 12:17:21;;;;;;;8.07;3.30;;;;;;;;;;5113828;28;20035;-75
2023/10/30 12:20:07;;;;;;;8.68;5.18;;;;;;;;;;5113696;28;20016;-76
2023/10/30 12:22:56;;;;;;;5.57;3.17;;;;;;;;;;5114288;28;20074;-75
2023/10/30 12:25:43;;;;;;;6.22;3.35;;;;;;;;;;5102179;28;20026;-76
2023/10/30 12:28:35;;;;;;;10.32;4.50;;;;;;;;;;5118283;28;20019;-76
2023/10/30 12:31:22;;;;;;;10.80;4.55;;;;;;;;;;5117654;28;20074;-78
2023/10/30 12:34:09;;;;;;;13.60;4.18;;;;;;;;;;5118411;28;20019;-78
2023/10/30 12:36:54;;;;;;;13.93;3.00;;;;;;;;;;5117762;28;20023;-77
2023/10/30 12:40:18;;;;;;;9.20;3.40;;;;;;;;;;5116592;28;20175;-78
2023/10/30 12:43:04;;;;;;;8.30;3.28;;;;;;;;;;5002565;28;20033;-75
2023/10/30 12:45:50;;;;;;;7.53;2.92;;;;;;;;;;5001915;28;20021;-75
2023/10/30 12:48:35;;;;;;;10.38;3.42;;;;;;;;;;5104800;28;20027;-73
2023/10/30 12:51:21;;;;;;;6.60;3.22;;;;;;;;;;5117264;28;20451;-77
2023/10/30 12:54:07;;;;;;;6.05;3.40;;;;;;;;;;5117377;28;20052;-74
2023/10/30 12:56:52;;;;;;;9.63;3.47;;;;;;;;;;5102084;28;20015;-74
2023/10/30 12:59:38;;;;;;;5.80;3.60;;;;;;;;;;5117382;28;20029;-74
2023/10/30 13:02:23;;;;;;;4.63;2.90;;;;;;;;;;5117164;28;20023;-74
2023/10/30 13:05:11;;;;;;;7.75;3.30;;;;;;;;;;5117330;28;20466;-74
2023/10/30 13:07:57;;;;;;;6.22;3.60;;;;;;;;;;5117880;28;20031;-73
2023/10/30 13:10:42;;;;;;;5.47;3.38;;;;;;;;;;5117114;28;20088;-73
2023/10/30 13:13:28;;;;;;;8.82;4.18;;;;;;;;;;5116943;28;20031;-74
2023/10/30 13:16:16;;;;;;;6.22;3.00;;;;;;;;;;5117467;28;20019;-77
2023/10/30 13:19:02;;;;;;;6.30;3.33;;;;;;;;;;5118282;28;20126;-77
2023/10/30 13:21:48;;;;;;;7.95;4.13;;;;;;;;;;5118349;28;20019;-76
2023/10/30 13:24:33;;;;;;;5.57;3.58;;;;;;;;;;5102249;28;20356;-72
2023/10/30 13:27:19;;;;;;;6.35;3.10;;;;;;;;;;5116993;28;20016;-73
2023/10/30 13:30:05;;;;;;;9.73;3.60;;;;;;;;;;5116943;28;20077;-75
2023/10/30 13:32:59;;;;;;;6.47;3.65;;;;;;;;;;5117931;28;20452;-74
2023/10/30 13:35:45;;;;;;;18.05;4.22;;;;;;;;;;5100540;28;20020;-73
2023/10/30 13:38:30;;;;;;;9.40;3.78;;;;;;;;;;5116913;28;20012;-75
2023/10/30 13:41:16;;;;;;;9.65;3.88;;;;;;;;;;5117269;28;20095;-73
2023/10/30 13:44:02;;;;;;;8.13;3.60;;;;;;;;;;5117315;28;20070;-74
2023/10/30 13:46:48;;;;;;;7.78;3.72;;;;;;;;;;5102277;28;20023;-75
2023/10/30 13:49:34;;;;;;;9.45;3.72;;;;;;;;;;5115995;28;20456;-74
2023/10/30 13:52:19;;;;;;;14.50;4.10;;;;;;;;;;5102078;28;20027;-72
2023/10/30 13:55:05;;;;;;;7.20;3.70;;;;;;;;;;5116206;28;20117;-74
2023/10/30 13:57:51;;;;;;;6.93;3.55;;;;;;;;;;5116831;28;20023;-73
2023/10/30 14:00:37;;;;;;;7.78;3.22;;;;;;;;;;5116222;28;20073;-74
2023/10/30 14:03:22;;;;;;;21.98;13.18;;;;;;;;;;5116314;28;20027;-72
2023/10/30 14:06:08;;;;;;;16.35;7.90;;;;;;;;;;5116956;28;20019;-72
2023/10/30 14:08:54;;;;;;;6.82;3.65;;;;;;;;;;5115937;28;20355;-69
2023/10/30 14:11:39;;;;;;;18.77;9.15;;;;;;;;;;5116443;28;20023;-69
2023/10/30 14:14:25;;;;;;;18.30;8.43;;;;;;;;;;5116113;28;20019;-69
2023/10/30 14:17:11;;;;;;;9.20;3.72;;;;;;;;;;5116114;28;20031;-70
2023/10/30 14:19:57;;;;;;;8.43;4.15;;;;;;;;;;5117286;28;20405;-70
2023/10/30 14:22:43;;;;;;;7.65;3.67;;;;;;;;;;5115383;28;20027;-69
2023/10/30 14:25:31;;;;;;;8.20;3.42;;;;;;;;;;5135263;27;20337;-70
2023/10/30 14:28:17;;;;;;;14.40;5.20;;;;;;;;;;5135821;27;20035;-70
2023/10/30 14:31:03;;;;;;;15.00;5.28;;;;;;;;;;5121684;27;20152;-70
2023/10/30 14:33:48;;;;;;;16.45;5.60;;;;;;;;;;5136511;27;20023;-69
2023/10/30 14:36:34;;;;;;;9.80;4.80;;;;;;;;;;5136441;27;20034;-70
2023/10/30 14:39:20;;;;;;;20.40;6.05;;;;;;;;;;5137072;27;20022;-69
2023/10/30 14:42:09;;;;;;;12.25;5.25;;;;;;;;;;5136657;27;20027;-70
2023/10/30 14:44:55;;;;;;;16.08;5.95;;;;;;;;;;5136136;27;20122;-70
2023/10/30 14:47:41;;;;;;;10.55;5.07;;;;;;;;;;5120909;27;20015;-68
2023/10/30 14:50:27;;;;;;;12.63;4.68;;;;;;;;;;5120824;27;20015;-69
2023/10/30 14:53:13;;;;;;;10.52;5.40;;;;;;;;;;5136392;27;20103;-71
2023/10/30 14:55:59;;;;;;;17.58;5.47;;;;;;;;;;5135008;27;20077;-70
2023/10/30 14:58:44;;;;;;;23.58;6.03;;;;;;;;;;5133503;27;20025;-72
2023/10/30 15:01:30;;;;;;;16.92;6.38;;;;;;;;;;5134293;27;20034;-72
2023/10/30 15:04:16;;;;;;;21.88;6.75;;;;;;;;;;5133674;27;20355;-71
2023/10/30 15:07:02;;;;;;;16.08;6.05;;;;;;;;;;5119304;27;20098;-71
2023/10/30 15:09:48;;;;;;;21.60;6.60;;;;;;;;;;5135092;27;20469;-72
2023/10/30 15:12:33;;;;;;;15.98;6.38;;;;;;;;;;5134572;27;20023;-71
2023/10/30 15:15:19;;;;;;;29.38;7.63;;;;;;;;;;5136411;27;20054;-71
2023/10/30 15:18:04;;;;;;;17.30;6.80;;;;;;;;;;5138467;27;20373;-71
2023/10/30 15:20:50;;;;;;;20.35;8.48;;;;;;;;;;5136035;27;20037;-72
2023/10/30 15:23:36;;;;;;;26.25;8.85;;;;;;;;;;5135551;27;20011;-72
2023/10/30 15:26:21;;;;;;;21.20;8.63;;;;;;;;;;5135812;27;20111;-72
2023/10/30 15:29:07;;;;;;;33.20;11.10;;;;;;;;;;5135942;27;20038;-71
2023/10/30 15:31:53;;;;;;;23.15;10.23;;;;;;;;;;5120522;27;20019;-71
2023/10/30 15:34:38;;;;;;;17.85;9.27;;;;;;;;;;5135803;27;20031;-71
2023/10/30 15:37:24;;;;;;;24.80;8.60;;;;;;;;;;5135812;27;20076;-71
2023/10/30 15:40:10;;;;;;;30.95;8.85;;;;;;;;;;5135680;27;20015;-72
2023/10/30 15:42:58;;;;;;;24.85;8.43;;;;;;;;;;5135584;27;20106;-73
2023/10/30 15:45:44;;;;;;;34.25;11.40;;;;;;;;;;5136495;27;20019;-71
2023/10/30 15:48:29;;;;;;;29.67;10.52;;;;;;;;;;5135193;27;20007;-72
2023/10/30 15:51:15;;;;;;;27.25;9.85;;;;;;;;;;5136076;27;20023;-71
2023/10/30 15:54:01;;;;;;;45.72;15.38;;;;;;;;;;5138853;27;20058;-71
2023/10/30 15:56:46;;;;;;;35.45;14.13;;;;;;;;;;5135274;27;20015;-71
2023/10/30 15:59:36;;;;;;;50.10;16.50;;;;;;;;;;5135644;27;20087;-72
2023/10/30 16:02:25;;;;;;;54.40;18.75;;;;;;;;;;5130072;27;20023;-75
2023/10/30 16:05:11;;;;;;;46.45;16.42;;;;;;;;;;5135150;27;20030;-76
2023/10/30 16:07:56;;;;;;;58.05;20.83;;;;;;;;;;5134955;27;20355;-76
2023/10/30 16:10:42;;;;;;;49.42;16.85;;;;;;;;;;5135042;27;20023;-77
2023/10/30 16:13:27;;;;;;;46.47;17.42;;;;;;;;;;5120418;28;20084;-77
2023/10/30 16:16:13;;;;;;;54.30;22.20;;;;;;;;;;5136025;28;20083;-76
2023/10/30 16:18:59;;;;;;;48.42;19.42;;;;;;;;;;5135723;28;20076;-76
2023/10/30 16:21:45;;;;;;;59.92;19.90;;;;;;;;;;5141185;28;20108;-75
2023/10/30 16:24:31;;;;;;;50.53;21.85;;;;;;;;;;5140083;28;20019;-78
2023/10/30 16:27:17;;;;;;;54.25;21.15;;;;;;;;;;5136718;28;20371;-77